sensor_id;sensor_type;location;lat;lon;timestamp;P1;durP1;ratioP1;P2;durP2;ratioP2
8642;SDS011;4359;49.358;11.256;2023-10-19T00:00:36;40.88;;;28.58;;
8642;SDS011;4359;49.358;11.256;2023-10-19T00:03:06;44.42;;;28.95;;
8642;SDS011;4359;49.358;11.256;2023-10-19T00:05:33;44.33;;;28.80;;
8642;SDS011;4359;49.358;11.256;2023-10-19T00:07:59;41.90;;;29.13;;
8642;SDS011;4359;49.358;11.256;2023-10-19T00:10:30;42.15;;;27.45;;
8642;SDS011;4359;49.358;11.256;2023-10-19T00:13:02;41.28;;;28.52;;
8642;SDS011;4359;49.358;11.256;2023-10-19T00:15:34;40.85;;;26.80;;
8642;SDS011;4359;49.358;11.256;2023-10-19T00:18:04;41.42;;;27.45;;
8642;SDS011;4359;49.358;11.256;2023-10-19T00:20:52;46.47;;;28.10;;
8642;SDS011;4359;49.358;11.256;2023-10-19T00:23:36;43.30;;;29.05;;
8642;SDS011;4359;49.358;11.256;2023-10-19T00:26:03;42.17;;;27.95;;
8642;SDS011;4359;49.358;11.256;2023-10-19T00:28:39;48.83;;;30.73;;
8642;SDS011;4359;49.358;11.256;2023-10-19T00:31:05;50.10;;;29.70;;
8642;SDS011;4359;49.358;11.256;2023-10-19T00:33:37;43.53;;;29.50;;
8642;SDS011;4359;49.358;11.256;2023-10-19T00:36:04;41.90;;;27.98;;
8642;SDS011;4359;49.358;11.256;2023-10-19T00:38:34;43.70;;;29.60;;
8642;SDS011;4359;49.358;11.256;2023-10-19T00:41:16;42.45;;;28.05;;
8642;SDS011;4359;49.358;11.256;2023-10-19T00:43:52;39.42;;;27.33;;
8642;SDS011;4359;49.358;11.256;2023-10-19T00:46:36;42.53;;;29.10;;
8642;SDS011;4359;49.358;11.256;2023-10-19T00:49:08;44.88;;;29.58;;
8642;SDS011;4359;49.358;11.256;2023-10-19T00:51:40;43.33;;;28.38;;
8642;SDS011;4359;49.358;11.256;2023-10-19T00:54:26;42.80;;;30.55;;
8642;SDS011;4359;49.358;11.256;2023-10-19T00:57:01;44.03;;;29.73;;
8642;SDS011;4359;49.358;11.256;2023-10-19T00:59:32;50.83;;;33.40;;
8642;SDS011;4359;49.358;11.256;2023-10-19T01:04:54;44.80;;;30.80;;
8642;SDS011;4359;49.358;11.256;2023-10-19T01:07:23;46.53;;;32.33;;
8642;SDS011;4359;49.358;11.256;2023-10-19T01:10:03;43.97;;;31.05;;
8642;SDS011;4359;49.358;11.256;2023-10-19T01:12:31;44.65;;;30.95;;
8642;SDS011;4359;49.358;11.256;2023-10-19T01:15:05;45.80;;;31.83;;
8642;SDS011;4359;49.358;11.256;2023-10-19T01:17:47;48.05;;;30.92;;
8642;SDS011;4359;49.358;11.256;2023-10-19T01:20:22;41.33;;;28.85;;
8642;SDS011;4359;49.358;11.256;2023-10-19T01:25:33;40.15;;;29.20;;
8642;SDS011;4359;49.358;11.256;2023-10-19T01:28:25;46.45;;;31.35;;
8642;SDS011;4359;49.358;11.256;2023-10-19T01:31:08;47.03;;;32.27;;
8642;SDS011;4359;49.358;11.256;2023-10-19T01:33:33;48.97;;;33.38;;
8642;SDS011;4359;49.358;11.256;2023-10-19T01:36:00;45.17;;;32.55;;
8642;SDS011;4359;49.358;11.256;2023-10-19T01:38:36;42.72;;;30.25;;
8642;SDS011;4359;49.358;11.256;2023-10-19T01:41:02;44.55;;;31.42;;
8642;SDS011;4359;49.358;11.256;2023-10-19T01:43:41;43.90;;;29.77;;
8642;SDS011;4359;49.358;11.256;2023-10-19T01:46:08;46.25;;;31.77;;
8642;SDS011;4359;49.358;11.256;2023-10-19T01:48:41;54.70;;;35.00;;
8642;SDS011;4359;49.358;11.256;2023-10-19T01:51:09;50.55;;;34.28;;
8642;SDS011;4359;49.358;11.256;2023-10-19T01:53:39;50.03;;;34.13;;
8642;SDS011;4359;49.358;11.256;2023-10-19T01:56:12;47.97;;;33.85;;
8642;SDS011;4359;49.358;11.256;2023-10-19T01:58:40;54.03;;;35.20;;
8642;SDS011;4359;49.358;11.256;2023-10-19T02:01:07;49.95;;;33.95;;
8642;SDS011;4359;49.358;11.256;2023-10-19T02:03:58;47.58;;;32.33;;
8642;SDS011;4359;49.358;11.256;2023-10-19T02:06:29;52.30;;;32.83;;
8642;SDS011;4359;49.358;11.256;2023-10-19T02:09:01;53.20;;;34.53;;
8642;SDS011;4359;49.358;11.256;2023-10-19T02:11:53;53.40;;;35.88;;
8642;SDS011;4359;49.358;11.256;2023-10-19T02:14:21;53.10;;;35.75;;
8642;SDS011;4359;49.358;11.256;2023-10-19T02:16:50;52.78;;;36.03;;
8642;SDS011;4359;49.358;11.256;2023-10-19T02:19:18;57.47;;;34.88;;
8642;SDS011;4359;49.358;11.256;2023-10-19T02:21:48;53.35;;;33.30;;
8642;SDS011;4359;49.358;11.256;2023-10-19T02:24:39;57.53;;;33.92;;
8642;SDS011;4359;49.358;11.256;2023-10-19T02:27:05;46.70;;;31.77;;
8642;SDS011;4359;49.358;11.256;2023-10-19T02:29:31;45.28;;;32.45;;
8642;SDS011;4359;49.358;11.256;2023-10-19T02:31:56;49.85;;;31.95;;
8642;SDS011;4359;49.358;11.256;2023-10-19T02:34:27;46.00;;;31.60;;
8642;SDS011;4359;49.358;11.256;2023-10-19T02:36:53;44.42;;;30.65;;
8642;SDS011;4359;49.358;11.256;2023-10-19T02:39:20;44.05;;;31.00;;
8642;SDS011;4359;49.358;11.256;2023-10-19T02:41:47;43.67;;;30.92;;
8642;SDS011;4359;49.358;11.256;2023-10-19T02:44:14;48.28;;;31.50;;
8642;SDS011;4359;49.358;11.256;2023-10-19T02:46:47;44.78;;;30.23;;
8642;SDS011;4359;49.358;11.256;2023-10-19T02:49:17;45.17;;;30.50;;
8642;SDS011;4359;49.358;11.256;2023-10-19T02:51:45;44.25;;;30.02;;
8642;SDS011;4359;49.358;11.256;2023-10-19T02:54:12;41.55;;;29.10;;
8642;SDS011;4359;49.358;11.256;2023-10-19T02:56:54;40.35;;;28.08;;
8642;SDS011;4359;49.358;11.256;2023-10-19T02:59:24;41.28;;;27.83;;
8642;SDS011;4359;49.358;11.256;2023-10-19T03:01:51;41.78;;;28.25;;
8642;SDS011;4359;49.358;11.256;2023-10-19T03:04:19;41.42;;;28.10;;
8642;SDS011;4359;49.358;11.256;2023-10-19T03:06:45;34.05;;;26.40;;
8642;SDS011;4359;49.358;11.256;2023-10-19T03:09:11;39.63;;;27.48;;
8642;SDS011;4359;49.358;11.256;2023-10-19T03:11:53;43.10;;;28.92;;
8642;SDS011;4359;49.358;11.256;2023-10-19T03:14:21;41.70;;;29.20;;
8642;SDS011;4359;49.358;11.256;2023-10-19T03:16:50;45.83;;;29.83;;
8642;SDS011;4359;49.358;11.256;2023-10-19T03:19:16;46.60;;;29.40;;
8642;SDS011;4359;49.358;11.256;2023-10-19T03:21:42;36.80;;;26.58;;
8642;SDS011;4359;49.358;11.256;2023-10-19T03:24:09;44.20;;;30.42;;
8642;SDS011;4359;49.358;11.256;2023-10-19T03:26:38;38.72;;;27.17;;
8642;SDS011;4359;49.358;11.256;2023-10-19T03:29:08;43.50;;;30.55;;
8642;SDS011;4359;49.358;11.256;2023-10-19T03:31:39;44.80;;;30.98;;
8642;SDS011;4359;49.358;11.256;2023-10-19T03:34:11;47.25;;;30.63;;
8642;SDS011;4359;49.358;11.256;2023-10-19T03:36:38;45.60;;;30.85;;
8642;SDS011;4359;49.358;11.256;2023-10-19T03:39:04;45.83;;;31.77;;
8642;SDS011;4359;49.358;11.256;2023-10-19T03:41:38;44.47;;;31.85;;
8642;SDS011;4359;49.358;11.256;2023-10-19T03:44:07;50.15;;;31.25;;
8642;SDS011;4359;49.358;11.256;2023-10-19T03:46:39;43.88;;;31.05;;
8642;SDS011;4359;49.358;11.256;2023-10-19T03:49:18;39.25;;;27.92;;
8642;SDS011;4359;49.358;11.256;2023-10-19T03:51:47;46.05;;;31.05;;
8642;SDS011;4359;49.358;11.256;2023-10-19T03:54:45;39.13;;;27.48;;
8642;SDS011;4359;49.358;11.256;2023-10-19T03:57:13;38.95;;;26.35;;
8642;SDS011;4359;49.358;11.256;2023-10-19T03:59:50;42.72;;;29.00;;
8642;SDS011;4359;49.358;11.256;2023-10-19T04:02:22;38.90;;;28.48;;
8642;SDS011;4359;49.358;11.256;2023-10-19T04:05:00;39.47;;;28.98;;
8642;SDS011;4359;49.358;11.256;2023-10-19T04:07:27;44.10;;;28.25;;
8642;SDS011;4359;49.358;11.256;2023-10-19T04:09:56;40.47;;;28.65;;
8642;SDS011;4359;49.358;11.256;2023-10-19T04:12:32;43.25;;;28.02;;
8642;SDS011;4359;49.358;11.256;2023-10-19T04:15:00;37.33;;;27.20;;
8642;SDS011;4359;49.358;11.256;2023-10-19T04:17:36;38.13;;;27.17;;
8642;SDS011;4359;49.358;11.256;2023-10-19T04:20:04;43.45;;;28.58;;
8642;SDS011;4359;49.358;11.256;2023-10-19T04:22:38;35.60;;;25.90;;
8642;SDS011;4359;49.358;11.256;2023-10-19T04:25:04;37.53;;;26.17;;
8642;SDS011;4359;49.358;11.256;2023-10-19T04:27:31;35.40;;;26.35;;
8642;SDS011;4359;49.358;11.256;2023-10-19T04:30:00;34.67;;;25.80;;
8642;SDS011;4359;49.358;11.256;2023-10-19T04:32:27;39.22;;;28.13;;
8642;SDS011;4359;49.358;11.256;2023-10-19T04:34:53;38.65;;;27.63;;
8642;SDS011;4359;49.358;11.256;2023-10-19T04:37:19;39.55;;;28.23;;
8642;SDS011;4359;49.358;11.256;2023-10-19T04:39:45;39.05;;;27.73;;
8642;SDS011;4359;49.358;11.256;2023-10-19T04:42:10;41.15;;;28.02;;
8642;SDS011;4359;49.358;11.256;2023-10-19T04:44:37;37.97;;;27.15;;
8642;SDS011;4359;49.358;11.256;2023-10-19T04:47:03;36.47;;;26.15;;
8642;SDS011;4359;49.358;11.256;2023-10-19T04:49:28;39.45;;;26.90;;
8642;SDS011;4359;49.358;11.256;2023-10-19T04:51:54;38.22;;;27.45;;
8642;SDS011;4359;49.358;11.256;2023-10-19T04:54:20;37.25;;;27.17;;
8642;SDS011;4359;49.358;11.256;2023-10-19T04:56:45;40.33;;;27.70;;
8642;SDS011;4359;49.358;11.256;2023-10-19T04:59:11;36.60;;;26.90;;
8642;SDS011;4359;49.358;11.256;2023-10-19T05:01:36;43.40;;;28.98;;
8642;SDS011;4359;49.358;11.256;2023-10-19T05:04:02;40.38;;;28.85;;
8642;SDS011;4359;49.358;11.256;2023-10-19T05:06:28;44.60;;;27.83;;
8642;SDS011;4359;49.358;11.256;2023-10-19T05:08:54;40.00;;;27.17;;
8642;SDS011;4359;49.358;11.256;2023-10-19T05:11:20;38.83;;;26.90;;
8642;SDS011;4359;49.358;11.256;2023-10-19T05:13:45;44.30;;;29.40;;
8642;SDS011;4359;49.358;11.256;2023-10-19T05:16:11;43.83;;;28.23;;
8642;SDS011;4359;49.358;11.256;2023-10-19T05:18:37;47.67;;;29.10;;
8642;SDS011;4359;49.358;11.256;2023-10-19T05:21:03;37.95;;;27.75;;
8642;SDS011;4359;49.358;11.256;2023-10-19T05:23:30;39.80;;;27.85;;
8642;SDS011;4359;49.358;11.256;2023-10-19T05:26:02;38.22;;;28.13;;
8642;SDS011;4359;49.358;11.256;2023-10-19T05:28:29;41.22;;;27.95;;
8642;SDS011;4359;49.358;11.256;2023-10-19T05:30:55;38.13;;;28.17;;
8642;SDS011;4359;49.358;11.256;2023-10-19T05:33:21;39.75;;;27.67;;
8642;SDS011;4359;49.358;11.256;2023-10-19T05:35:48;39.67;;;28.05;;
8642;SDS011;4359;49.358;11.256;2023-10-19T05:38:15;38.67;;;27.55;;
8642;SDS011;4359;49.358;11.256;2023-10-19T05:40:41;39.30;;;27.50;;
8642;SDS011;4359;49.358;11.256;2023-10-19T05:43:08;37.67;;;27.33;;
8642;SDS011;4359;49.358;11.256;2023-10-19T05:45:34;41.63;;;28.77;;
8642;SDS011;4359;49.358;11.256;2023-10-19T05:48:01;41.00;;;29.17;;
8642;SDS011;4359;49.358;11.256;2023-10-19T05:50:29;40.28;;;29.27;;
8642;SDS011;4359;49.358;11.256;2023-10-19T05:52:55;38.70;;;29.02;;
8642;SDS011;4359;49.358;11.256;2023-10-19T05:55:20;42.40;;;29.75;;
8642;SDS011;4359;49.358;11.256;2023-10-19T05:57:46;40.75;;;28.40;;
8642;SDS011;4359;49.358;11.256;2023-10-19T06:00:12;42.13;;;28.83;;
8642;SDS011;4359;49.358;11.256;2023-10-19T06:02:45;37.45;;;27.52;;
8642;SDS011;4359;49.358;11.256;2023-10-19T06:05:12;40.72;;;28.20;;
8642;SDS011;4359;49.358;11.256;2023-10-19T06:07:45;40.30;;;28.27;;
8642;SDS011;4359;49.358;11.256;2023-10-19T06:10:15;38.38;;;27.73;;
8642;SDS011;4359;49.358;11.256;2023-10-19T06:12:42;38.13;;;27.75;;
8642;SDS011;4359;49.358;11.256;2023-10-19T06:15:09;40.05;;;27.27;;
8642;SDS011;4359;49.358;11.256;2023-10-19T06:17:39;39.13;;;27.05;;
8642;SDS011;4359;49.358;11.256;2023-10-19T06:20:07;41.72;;;27.45;;
8642;SDS011;4359;49.358;11.256;2023-10-19T06:22:49;38.45;;;27.48;;
8642;SDS011;4359;49.358;11.256;2023-10-19T06:25:21;39.83;;;27.30;;
8642;SDS011;4359;49.358;11.256;2023-10-19T06:27:50;34.47;;;25.80;;
8642;SDS011;4359;49.358;11.256;2023-10-19T06:30:17;39.78;;;28.38;;
8642;SDS011;4359;49.358;11.256;2023-10-19T06:32:47;35.75;;;26.65;;
8642;SDS011;4359;49.358;11.256;2023-10-19T06:35:21;36.95;;;25.50;;
8642;SDS011;4359;49.358;11.256;2023-10-19T06:37:47;37.78;;;27.10;;
8642;SDS011;4359;49.358;11.256;2023-10-19T06:40:13;38.13;;;25.10;;
8642;SDS011;4359;49.358;11.256;2023-10-19T06:42:43;34.53;;;25.05;;
8642;SDS011;4359;49.358;11.256;2023-10-19T06:45:10;33.03;;;24.13;;
8642;SDS011;4359;49.358;11.256;2023-10-19T06:47:39;33.75;;;25.45;;
8642;SDS011;4359;49.358;11.256;2023-10-19T06:50:09;32.30;;;23.77;;
8642;SDS011;4359;49.358;11.256;2023-10-19T06:52:37;31.25;;;24.05;;
8642;SDS011;4359;49.358;11.256;2023-10-19T06:55:04;33.67;;;24.92;;
8642;SDS011;4359;49.358;11.256;2023-10-19T06:57:34;33.72;;;23.92;;
8642;SDS011;4359;49.358;11.256;2023-10-19T07:00:00;34.40;;;23.92;;
8642;SDS011;4359;49.358;11.256;2023-10-19T07:02:35;35.07;;;25.73;;
8642;SDS011;4359;49.358;11.256;2023-10-19T07:05:01;32.92;;;23.67;;
8642;SDS011;4359;49.358;11.256;2023-10-19T07:07:28;36.97;;;26.23;;
8642;SDS011;4359;49.358;11.256;2023-10-19T07:09:54;32.95;;;24.10;;
8642;SDS011;4359;49.358;11.256;2023-10-19T07:12:20;35.83;;;23.60;;
8642;SDS011;4359;49.358;11.256;2023-10-19T07:14:46;30.33;;;23.60;;
8642;SDS011;4359;49.358;11.256;2023-10-19T07:17:12;33.05;;;23.98;;
8642;SDS011;4359;49.358;11.256;2023-10-19T07:19:41;29.85;;;24.00;;
8642;SDS011;4359;49.358;11.256;2023-10-19T07:22:08;34.88;;;24.83;;
8642;SDS011;4359;49.358;11.256;2023-10-19T07:24:35;32.28;;;23.73;;
8642;SDS011;4359;49.358;11.256;2023-10-19T07:27:02;31.73;;;23.10;;
8642;SDS011;4359;49.358;11.256;2023-10-19T07:29:32;29.50;;;22.15;;
8642;SDS011;4359;49.358;11.256;2023-10-19T07:32:01;29.23;;;22.98;;
8642;SDS011;4359;49.358;11.256;2023-10-19T07:34:30;30.15;;;23.80;;
8642;SDS011;4359;49.358;11.256;2023-10-19T07:36:58;31.40;;;23.25;;
8642;SDS011;4359;49.358;11.256;2023-10-19T07:39:25;31.08;;;23.05;;
8642;SDS011;4359;49.358;11.256;2023-10-19T07:41:54;30.80;;;23.13;;
8642;SDS011;4359;49.358;11.256;2023-10-19T07:44:21;30.52;;;22.73;;
8642;SDS011;4359;49.358;11.256;2023-10-19T07:46:47;30.50;;;22.20;;
8642;SDS011;4359;49.358;11.256;2023-10-19T07:49:14;29.10;;;21.75;;
8642;SDS011;4359;49.358;11.256;2023-10-19T07:51:46;27.85;;;20.95;;
8642;SDS011;4359;49.358;11.256;2023-10-19T07:54:16;27.23;;;21.02;;
8642;SDS011;4359;49.358;11.256;2023-10-19T07:56:41;27.13;;;20.52;;
8642;SDS011;4359;49.358;11.256;2023-10-19T07:59:08;23.80;;;19.38;;
8642;SDS011;4359;49.358;11.256;2023-10-19T08:01:34;22.75;;;18.33;;
8642;SDS011;4359;49.358;11.256;2023-10-19T08:04:01;24.27;;;19.35;;
8642;SDS011;4359;49.358;11.256;2023-10-19T08:06:26;27.23;;;17.80;;
8642;SDS011;4359;49.358;11.256;2023-10-19T08:08:52;22.10;;;17.10;;
8642;SDS011;4359;49.358;11.256;2023-10-19T08:11:18;22.27;;;16.65;;
8642;SDS011;4359;49.358;11.256;2023-10-19T08:13:43;26.65;;;18.55;;
8642;SDS011;4359;49.358;11.256;2023-10-19T08:16:09;21.65;;;17.60;;
8642;SDS011;4359;49.358;11.256;2023-10-19T08:18:37;24.63;;;18.02;;
8642;SDS011;4359;49.358;11.256;2023-10-19T08:21:02;22.13;;;18.10;;
8642;SDS011;4359;49.358;11.256;2023-10-19T08:23:28;25.00;;;18.45;;
8642;SDS011;4359;49.358;11.256;2023-10-19T08:25:56;27.05;;;19.02;;
8642;SDS011;4359;49.358;11.256;2023-10-19T08:28:23;24.05;;;18.15;;
8642;SDS011;4359;49.358;11.256;2023-10-19T08:30:49;26.90;;;18.58;;
8642;SDS011;4359;49.358;11.256;2023-10-19T08:33:27;22.83;;;18.10;;
8642;SDS011;4359;49.358;11.256;2023-10-19T08:35:53;24.17;;;18.88;;
8642;SDS011;4359;49.358;11.256;2023-10-19T08:38:19;24.80;;;19.38;;
8642;SDS011;4359;49.358;11.256;2023-10-19T08:40:45;21.23;;;18.42;;
8642;SDS011;4359;49.358;11.256;2023-10-19T08:43:11;26.02;;;18.75;;
8642;SDS011;4359;49.358;11.256;2023-10-19T08:45:38;31.88;;;20.17;;
8642;SDS011;4359;49.358;11.256;2023-10-19T08:48:04;24.70;;;19.48;;
8642;SDS011;4359;49.358;11.256;2023-10-19T08:50:33;24.92;;;18.52;;
8642;SDS011;4359;49.358;11.256;2023-10-19T08:53:00;24.55;;;18.45;;
8642;SDS011;4359;49.358;11.256;2023-10-19T08:55:28;25.55;;;18.13;;
8642;SDS011;4359;49.358;11.256;2023-10-19T08:57:55;27.00;;;19.33;;
8642;SDS011;4359;49.358;11.256;2023-10-19T09:00:23;27.23;;;18.30;;
8642;SDS011;4359;49.358;11.256;2023-10-19T09:02:52;24.95;;;18.10;;
8642;SDS011;4359;49.358;11.256;2023-10-19T09:05:21;24.35;;;18.95;;
8642;SDS011;4359;49.358;11.256;2023-10-19T09:07:54;23.17;;;19.02;;
8642;SDS011;4359;49.358;11.256;2023-10-19T09:10:27;24.88;;;18.80;;
8642;SDS011;4359;49.358;11.256;2023-10-19T09:13:00;25.92;;;17.95;;
8642;SDS011;4359;49.358;11.256;2023-10-19T09:15:28;25.00;;;19.45;;
8642;SDS011;4359;49.358;11.256;2023-10-19T09:17:57;23.55;;;18.45;;
8642;SDS011;4359;49.358;11.256;2023-10-19T09:20:44;29.00;;;18.73;;
8642;SDS011;4359;49.358;11.256;2023-10-19T09:23:30;23.85;;;19.20;;
8642;SDS011;4359;49.358;11.256;2023-10-19T09:25:57;25.40;;;18.50;;
8642;SDS011;4359;49.358;11.256;2023-10-19T09:28:28;24.92;;;19.15;;
8642;SDS011;4359;49.358;11.256;2023-10-19T09:30:54;26.27;;;19.17;;
8642;SDS011;4359;49.358;11.256;2023-10-19T09:33:21;23.45;;;18.70;;
8642;SDS011;4359;49.358;11.256;2023-10-19T09:35:49;22.30;;;17.85;;
8642;SDS011;4359;49.358;11.256;2023-10-19T09:38:17;23.73;;;18.25;;
8642;SDS011;4359;49.358;11.256;2023-10-19T09:40:50;23.88;;;18.02;;
8642;SDS011;4359;49.358;11.256;2023-10-19T09:43:37;28.13;;;17.92;;
8642;SDS011;4359;49.358;11.256;2023-10-19T09:46:07;22.35;;;17.63;;
8642;SDS011;4359;49.358;11.256;2023-10-19T09:48:39;24.58;;;17.45;;
8642;SDS011;4359;49.358;11.256;2023-10-19T09:51:07;21.48;;;17.40;;
8642;SDS011;4359;49.358;11.256;2023-10-19T09:53:34;23.23;;;18.50;;
8642;SDS011;4359;49.358;11.256;2023-10-19T09:56:01;27.20;;;17.95;;
8642;SDS011;4359;49.358;11.256;2023-10-19T09:58:50;22.80;;;17.52;;
8642;SDS011;4359;49.358;11.256;2023-10-19T10:01:21;24.02;;;18.08;;
8642;SDS011;4359;49.358;11.256;2023-10-19T10:03:53;28.13;;;18.58;;
8642;SDS011;4359;49.358;11.256;2023-10-19T10:06:28;25.50;;;18.23;;
8642;SDS011;4359;49.358;11.256;2023-10-19T10:08:56;24.88;;;17.35;;
8642;SDS011;4359;49.358;11.256;2023-10-19T10:11:24;40.47;;;21.40;;
8642;SDS011;4359;49.358;11.256;2023-10-19T10:13:56;24.27;;;17.23;;
8642;SDS011;4359;49.358;11.256;2023-10-19T10:16:27;22.45;;;17.30;;
8642;SDS011;4359;49.358;11.256;2023-10-19T10:18:58;25.88;;;17.88;;
8642;SDS011;4359;49.358;11.256;2023-10-19T10:21:25;23.05;;;17.58;;
8642;SDS011;4359;49.358;11.256;2023-10-19T10:23:52;22.83;;;17.08;;
8642;SDS011;4359;49.358;11.256;2023-10-19T10:26:21;24.73;;;16.40;;
8642;SDS011;4359;49.358;11.256;2023-10-19T10:29:07;20.67;;;17.08;;
8642;SDS011;4359;49.358;11.256;2023-10-19T10:31:45;22.20;;;16.92;;
8642;SDS011;4359;49.358;11.256;2023-10-19T10:34:12;20.35;;;16.90;;
8642;SDS011;4359;49.358;11.256;2023-10-19T10:37:06;26.42;;;18.00;;
8642;SDS011;4359;49.358;11.256;2023-10-19T10:39:33;24.95;;;17.63;;
8642;SDS011;4359;49.358;11.256;2023-10-19T10:42:04;22.15;;;17.35;;
8642;SDS011;4359;49.358;11.256;2023-10-19T10:44:37;25.38;;;18.30;;
8642;SDS011;4359;49.358;11.256;2023-10-19T10:47:23;26.20;;;18.13;;
8642;SDS011;4359;49.358;11.256;2023-10-19T10:49:55;23.15;;;17.55;;
8642;SDS011;4359;49.358;11.256;2023-10-19T10:52:31;24.52;;;17.85;;
8642;SDS011;4359;49.358;11.256;2023-10-19T10:54:59;28.17;;;17.05;;
8642;SDS011;4359;49.358;11.256;2023-10-19T11:00:11;22.13;;;16.33;;
8642;SDS011;4359;49.358;11.256;2023-10-19T11:02:44;25.38;;;15.80;;
8642;SDS011;4359;49.358;11.256;2023-10-19T11:05:12;20.80;;;15.60;;
8642;SDS011;4359;49.358;11.256;2023-10-19T11:07:40;21.52;;;15.20;;
8642;SDS011;4359;49.358;11.256;2023-10-19T11:10:26;20.65;;;15.13;;
8642;SDS011;4359;49.358;11.256;2023-10-19T11:12:59;18.38;;;14.48;;
8642;SDS011;4359;49.358;11.256;2023-10-19T11:15:25;20.52;;;14.65;;
8642;SDS011;4359;49.358;11.256;2023-10-19T11:17:52;21.65;;;17.98;;
8642;SDS011;4359;49.358;11.256;2023-10-19T11:20:21;23.38;;;17.67;;
8642;SDS011;4359;49.358;11.256;2023-10-19T11:22:48;19.45;;;14.38;;
8642;SDS011;4359;49.358;11.256;2023-10-19T11:25:24;17.33;;;13.45;;
8642;SDS011;4359;49.358;11.256;2023-10-19T11:28:00;17.77;;;13.90;;
8642;SDS011;4359;49.358;11.256;2023-10-19T11:30:30;17.05;;;13.05;;
8642;SDS011;4359;49.358;11.256;2023-10-19T11:32:56;17.52;;;12.48;;
8642;SDS011;4359;49.358;11.256;2023-10-19T11:35:23;18.30;;;12.77;;
8642;SDS011;4359;49.358;11.256;2023-10-19T11:37:50;18.40;;;13.05;;
8642;SDS011;4359;49.358;11.256;2023-10-19T11:40:20;20.52;;;12.77;;
8642;SDS011;4359;49.358;11.256;2023-10-19T11:42:47;18.27;;;12.82;;
8642;SDS011;4359;49.358;11.256;2023-10-19T11:45:13;17.58;;;11.57;;
8642;SDS011;4359;49.358;11.256;2023-10-19T11:47:41;17.63;;;12.77;;
8642;SDS011;4359;49.358;11.256;2023-10-19T11:50:10;19.50;;;12.82;;
8642;SDS011;4359;49.358;11.256;2023-10-19T11:52:44;21.77;;;12.57;;
8642;SDS011;4359;49.358;11.256;2023-10-19T11:55:13;15.60;;;12.52;;
8642;SDS011;4359;49.358;11.256;2023-10-19T11:57:40;15.57;;;12.63;;
8642;SDS011;4359;49.358;11.256;2023-10-19T12:00:12;16.15;;;12.82;;
8642;SDS011;4359;49.358;11.256;2023-10-19T12:02:48;19.85;;;13.27;;
8642;SDS011;4359;49.358;11.256;2023-10-19T12:05:14;19.50;;;13.38;;
8642;SDS011;4359;49.358;11.256;2023-10-19T12:07:40;16.88;;;12.93;;
8642;SDS011;4359;49.358;11.256;2023-10-19T12:10:06;15.73;;;12.52;;
8642;SDS011;4359;49.358;11.256;2023-10-19T12:12:34;16.35;;;12.65;;
8642;SDS011;4359;49.358;11.256;2023-10-19T12:15:00;15.73;;;12.75;;
8642;SDS011;4359;49.358;11.256;2023-10-19T12:17:27;18.25;;;12.98;;
8642;SDS011;4359;49.358;11.256;2023-10-19T12:19:55;20.20;;;12.93;;
8642;SDS011;4359;49.358;11.256;2023-10-19T12:22:20;14.73;;;12.43;;
8642;SDS011;4359;49.358;11.256;2023-10-19T12:24:46;19.55;;;13.07;;
8642;SDS011;4359;49.358;11.256;2023-10-19T12:27:13;17.70;;;12.60;;
8642;SDS011;4359;49.358;11.256;2023-10-19T12:29:39;15.15;;;12.18;;
8642;SDS011;4359;49.358;11.256;2023-10-19T12:32:05;18.73;;;12.18;;
8642;SDS011;4359;49.358;11.256;2023-10-19T12:34:31;14.48;;;11.68;;
8642;SDS011;4359;49.358;11.256;2023-10-19T12:36:58;18.85;;;12.93;;
8642;SDS011;4359;49.358;11.256;2023-10-19T12:39:24;18.92;;;12.90;;
8642;SDS011;4359;49.358;11.256;2023-10-19T12:42:08;16.45;;;13.25;;
8642;SDS011;4359;49.358;11.256;2023-10-19T12:44:34;17.02;;;13.50;;
8642;SDS011;4359;49.358;11.256;2023-10-19T12:47:09;19.50;;;14.25;;
8642;SDS011;4359;49.358;11.256;2023-10-19T12:49:38;20.10;;;13.48;;
8642;SDS011;4359;49.358;11.256;2023-10-19T12:52:05;18.70;;;13.07;;
8642;SDS011;4359;49.358;11.256;2023-10-19T12:54:35;27.25;;;19.38;;
8642;SDS011;4359;49.358;11.256;2023-10-19T12:57:01;18.50;;;14.32;;
8642;SDS011;4359;49.358;11.256;2023-10-19T12:59:34;17.75;;;13.05;;
8642;SDS011;4359;49.358;11.256;2023-10-19T13:02:04;17.33;;;12.98;;
8642;SDS011;4359;49.358;11.256;2023-10-19T13:04:33;14.30;;;11.45;;
8642;SDS011;4359;49.358;11.256;2023-10-19T13:06:59;19.65;;;13.00;;
8642;SDS011;4359;49.358;11.256;2023-10-19T13:09:27;17.65;;;13.35;;
8642;SDS011;4359;49.358;11.256;2023-10-19T13:11:59;18.00;;;13.10;;
8642;SDS011;4359;49.358;11.256;2023-10-19T13:14:26;17.98;;;12.98;;
8642;SDS011;4359;49.358;11.256;2023-10-19T13:16:53;18.17;;;13.48;;
8642;SDS011;4359;49.358;11.256;2023-10-19T13:19:19;17.15;;;14.00;;
8642;SDS011;4359;49.358;11.256;2023-10-19T13:21:49;17.67;;;14.27;;
8642;SDS011;4359;49.358;11.256;2023-10-19T13:24:15;24.77;;;13.68;;
8642;SDS011;4359;49.358;11.256;2023-10-19T13:26:43;17.10;;;13.27;;
8642;SDS011;4359;49.358;11.256;2023-10-19T13:29:12;18.30;;;12.98;;
8642;SDS011;4359;49.358;11.256;2023-10-19T13:31:40;19.10;;;14.20;;
8642;SDS011;4359;49.358;11.256;2023-10-19T13:34:06;16.95;;;13.27;;
8642;SDS011;4359;49.358;11.256;2023-10-19T13:36:35;18.17;;;13.38;;
8642;SDS011;4359;49.358;11.256;2023-10-19T13:39:02;16.42;;;12.27;;
8642;SDS011;4359;49.358;11.256;2023-10-19T13:41:31;17.80;;;13.15;;
8642;SDS011;4359;49.358;11.256;2023-10-19T13:43:57;16.70;;;11.82;;
8642;SDS011;4359;49.358;11.256;2023-10-19T13:46:23;17.13;;;12.32;;
8642;SDS011;4359;49.358;11.256;2023-10-19T13:48:48;16.58;;;13.05;;
8642;SDS011;4359;49.358;11.256;2023-10-19T13:51:18;18.10;;;14.32;;
8642;SDS011;4359;49.358;11.256;2023-10-19T13:53:47;16.65;;;13.10;;
8642;SDS011;4359;49.358;11.256;2023-10-19T13:56:14;16.33;;;13.35;;
8642;SDS011;4359;49.358;11.256;2023-10-19T13:58:41;18.02;;;13.68;;
8642;SDS011;4359;49.358;11.256;2023-10-19T14:01:07;18.67;;;13.90;;
8642;SDS011;4359;49.358;11.256;2023-10-19T14:03:34;18.13;;;14.73;;
8642;SDS011;4359;49.358;11.256;2023-10-19T14:06:00;16.75;;;12.95;;
8642;SDS011;4359;49.358;11.256;2023-10-19T14:08:25;21.13;;;14.82;;
8642;SDS011;4359;49.358;11.256;2023-10-19T14:10:51;20.95;;;15.27;;
8642;SDS011;4359;49.358;11.256;2023-10-19T14:13:17;21.42;;;16.17;;
8642;SDS011;4359;49.358;11.256;2023-10-19T14:15:42;20.92;;;14.95;;
8642;SDS011;4359;49.358;11.256;2023-10-19T14:18:09;19.73;;;14.55;;
8642;SDS011;4359;49.358;11.256;2023-10-19T14:20:36;21.25;;;16.40;;
8642;SDS011;4359;49.358;11.256;2023-10-19T14:23:04;21.33;;;15.30;;
8642;SDS011;4359;49.358;11.256;2023-10-19T14:25:30;21.55;;;14.90;;
8642;SDS011;4359;49.358;11.256;2023-10-19T14:27:56;25.70;;;17.20;;
8642;SDS011;4359;49.358;11.256;2023-10-19T14:30:26;22.67;;;17.05;;
8642;SDS011;4359;49.358;11.256;2023-10-19T14:32:55;22.60;;;16.58;;
8642;SDS011;4359;49.358;11.256;2023-10-19T14:35:22;23.25;;;17.40;;
8642;SDS011;4359;49.358;11.256;2023-10-19T14:37:49;26.13;;;17.55;;
8642;SDS011;4359;49.358;11.256;2023-10-19T14:40:20;21.40;;;16.58;;
8642;SDS011;4359;49.358;11.256;2023-10-19T14:42:50;26.77;;;16.92;;
8642;SDS011;4359;49.358;11.256;2023-10-19T14:45:20;28.17;;;17.08;;
8642;SDS011;4359;49.358;11.256;2023-10-19T14:47:50;22.88;;;18.20;;
8642;SDS011;4359;49.358;11.256;2023-10-19T14:50:17;26.25;;;18.08;;
8642;SDS011;4359;49.358;11.256;2023-10-19T14:52:44;23.90;;;18.23;;
8642;SDS011;4359;49.358;11.256;2023-10-19T14:55:11;28.27;;;17.48;;